Time;durP1;ratioP1;P1;durP2;ratioP2;P2;SDS_P1;SDS_P2;PMS_P1;PMS_P2;Temp;Humidity;BMP_temperature;BMP_pressure;BME280_temperature;BME280_humidity;BME280_pressure;Samples;Min_cycle;Max_cycle;Signal;HPM_P1;HPM_P2
2023/06/09 00:01:47;;;;;;;10.83;8.10;;;18.10;1.00;;;;;;5031699;28;20217;-76
2023/06/09 00:04:13;;;;;;;9.20;7.53;;;18.10;1.00;;;;;;5032156;28;20324;-75
2023/06/09 00:06:39;;;;;;;10.73;8.10;;;18.10;1.00;;;;;;5031710;28;20643;-75
2023/06/09 00:09:06;;;;;;;11.40;7.80;;;18.10;1.00;;;;;;5032348;28;20767;-75
2023/06/09 00:11:32;;;;;;;10.30;8.20;;;18.00;1.00;;;;;;5031569;28;20433;-75
2023/06/09 00:13:58;;;;;;;11.20;7.77;;;18.00;1.00;;;;;;5031974;28;20506;-75
2023/06/09 00:16:24;;;;;;;9.37;7.87;;;18.00;1.00;;;;;;5031705;28;20416;-75
2023/06/09 00:18:52;;;;;;;11.10;8.77;;;17.90;1.00;;;;;;5031400;28;20559;-75
2023/06/09 00:21:18;;;;;;;12.67;8.87;;;17.90;1.00;;;;;;5030394;28;20547;-75
2023/06/09 00:23:45;;;;;;;10.13;7.67;;;17.90;1.00;;;;;;5029785;28;20454;-75
2023/06/09 00:26:11;;;;;;;10.10;7.97;;;17.90;1.00;;;;;;5030354;28;20482;-75
2023/06/09 00:28:37;;;;;;;10.50;8.00;;;17.80;1.00;;;;;;5031092;28;20518;-75
2023/06/09 00:31:03;;;;;;;9.87;7.90;;;17.70;1.00;;;;;;5030214;28;20425;-75
2023/06/09 00:33:28;;;;;;;14.57;8.87;;;17.40;1.00;;;;;;5031297;28;20186;-76
2023/06/09 00:35:54;;;;;;;10.10;8.23;;;17.40;1.00;;;;;;5031008;28;20181;-75
2023/06/09 00:38:20;;;;;;;8.83;7.93;;;17.30;1.00;;;;;;5031301;28;20181;-75
2023/06/09 00:40:45;;;;;;;12.17;7.80;;;17.20;1.00;;;;;;5030564;28;20182;-75
2023/06/09 00:43:11;;;;;;;10.77;8.50;;;17.20;1.00;;;;;;5031399;28;20209;-75
2023/06/09 00:45:36;;;;;;;14.10;7.67;;;17.10;1.00;;;;;;5031004;28;20197;-75
2023/06/09 00:48:02;;;;;;;11.53;8.40;;;17.10;1.00;;;;;;5030743;28;20251;-75
2023/06/09 00:50:28;;;;;;;10.73;8.10;;;17.00;1.00;;;;;;5029702;28;20746;-75
2023/06/09 00:52:56;;;;;;;9.53;8.20;;;17.00;1.00;;;;;;5029329;28;20174;-75
2023/06/09 00:55:22;;;;;;;9.73;8.40;;;16.90;1.00;;;;;;5028933;28;20283;-76
2023/06/09 00:57:48;;;;;;;11.00;8.17;;;16.90;1.00;;;;;;5030973;28;20433;-75
2023/06/09 01:00:16;;;;;;;9.40;8.27;;;16.90;1.00;;;;;;5031403;28;20433;-75
2023/06/09 01:02:42;;;;;;;10.30;8.33;;;16.80;1.00;;;;;;5029563;28;20979;-76
2023/06/09 01:05:09;;;;;;;9.40;7.97;;;16.80;1.00;;;;;;5029978;28;20522;-75
2023/06/09 01:07:46;;;;;;;11.43;7.80;;;16.70;1.00;;;;;;5030974;28;20954;-74
2023/06/09 01:10:21;;;;;;;8.13;7.33;;;16.60;1.00;;;;;;5031187;28;20496;-75
2023/06/09 01:13:16;;;;;;;10.00;7.67;;;16.70;1.00;;;;;;5030949;28;20478;-75
2023/06/09 01:15:49;;;;;;;8.60;7.47;;;16.60;1.00;;;;;;5030857;28;20524;-75
2023/06/09 01:18:17;;;;;;;9.03;7.80;;;16.50;1.00;;;;;;5030972;28;20421;-75
2023/06/09 01:21:02;;;;;;;10.37;8.07;;;16.50;1.00;;;;;;5030816;28;20421;-75
2023/06/09 01:23:39;;;;;;;9.30;7.77;;;16.40;1.00;;;;;;5030711;28;20420;-75
2023/06/09 01:26:05;;;;;;;9.67;7.30;;;16.40;1.00;;;;;;5023561;28;20432;-75
2023/06/09 01:28:33;;;;;;;11.87;7.63;;;16.60;1.00;;;;;;5030751;28;20594;-75
2023/06/09 01:31:00;;;;;;;8.60;7.67;;;16.40;1.00;;;;;;5029274;28;20512;-75
2023/06/09 01:33:25;;;;;;;9.37;7.00;;;16.40;1.00;;;;;;5029496;28;20428;-75
2023/06/09 01:35:53;;;;;;;10.90;7.40;;;16.40;1.00;;;;;;5030463;28;20507;-75
2023/06/09 01:38:20;;;;;;;8.40;7.37;;;16.40;1.00;;;;;;5030538;28;20189;-75
2023/06/09 01:40:46;;;;;;;16.17;7.70;;;16.40;1.00;;;;;;5030434;28;20507;-75
2023/06/09 01:43:12;;;;;;;11.03;8.40;;;16.50;1.00;;;;;;5030683;28;20915;-75
2023/06/09 01:45:37;;;;;;;10.70;7.90;;;16.50;1.00;;;;;;5030172;28;20452;-75
2023/06/09 01:48:28;;;;;;;13.63;7.40;;;16.60;1.00;;;;;;5030718;28;20236;-75
2023/06/09 01:50:53;;;;;;;9.13;7.70;;;16.60;1.00;;;;;;5022830;28;20248;-76
2023/06/09 01:53:26;;;;;;;10.17;7.80;;;16.50;1.00;;;;;;5029645;28;20852;-75
2023/06/09 01:56:17;;;;;;;9.47;7.90;;;16.40;1.00;;;;;;5027951;28;20193;-75
2023/06/09 01:58:50;;;;;;;8.43;7.27;;;16.50;1.00;;;;;;5027512;28;20939;-76
2023/06/09 02:01:18;;;;;;;9.97;8.67;;;16.50;1.00;;;;;;5029190;28;20463;-75
2023/06/09 02:03:45;;;;;;;10.23;7.37;;;16.50;1.00;;;;;;5030159;28;20950;-76
2023/06/09 02:06:12;;;;;;;9.00;7.90;;;16.50;1.00;;;;;;5030470;28;20836;-75
2023/06/09 02:08:39;;;;;;;9.23;7.40;;;16.40;1.00;;;;;;5029873;28;20460;-73
2023/06/09 02:11:05;;;;;;;11.00;8.37;;;16.40;1.00;;;;;;5030415;28;20460;-75
2023/06/09 02:13:30;;;;;;;13.53;8.30;;;16.30;1.00;;;;;;5030173;28;20451;-75
2023/06/09 02:15:56;;;;;;;9.00;8.03;;;16.30;1.00;;;;;;5030024;28;20186;-75
2023/06/09 02:18:22;;;;;;;8.83;7.93;;;16.30;1.00;;;;;;5030171;28;20656;-75
2023/06/09 02:20:49;;;;;;;8.20;7.40;;;16.30;1.00;;;;;;5030071;28;20208;-76
2023/06/09 02:23:17;;;;;;;8.53;7.40;;;16.30;1.00;;;;;;5030095;28;20424;-75
2023/06/09 02:25:43;;;;;;;10.97;7.30;;;16.30;1.00;;;;;;5030197;28;20823;-75
2023/06/09 02:28:08;;;;;;;9.60;7.27;;;16.30;1.00;;;;;;5029793;28;20428;-74
2023/06/09 02:30:34;;;;;;;10.47;7.77;;;16.30;1.00;;;;;;5030116;28;20214;-75
2023/06/09 02:33:01;;;;;;;12.20;7.80;;;16.20;1.00;;;;;;5029888;28;20186;-76
2023/06/09 02:35:28;;;;;;;11.13;7.40;;;16.10;1.00;;;;;;5030116;28;20510;-75
2023/06/09 02:37:54;;;;;;;16.33;8.50;;;16.10;1.00;;;;;;5029455;28;20444;-75
2023/06/09 02:40:20;;;;;;;9.33;7.57;;;16.00;1.00;;;;;;5030105;28;20475;-75
2023/06/09 02:42:46;;;;;;;11.03;7.50;;;16.00;1.00;;;;;;5029601;28;20186;-75
2023/06/09 02:45:12;;;;;;;10.53;8.13;;;15.90;1.00;;;;;;5030040;28;20448;-75
2023/06/09 02:47:38;;;;;;;9.67;7.60;;;16.50;1.00;;;;;;5029979;28;20771;-75
2023/06/09 02:50:05;;;;;;;10.13;7.47;;;15.90;1.00;;;;;;5029690;28;20206;-75
2023/06/09 02:52:31;;;;;;;10.70;8.37;;;15.90;1.00;;;;;;5029920;28;21022;-75
2023/06/09 02:54:57;;;;;;;9.47;7.83;;;15.80;1.00;;;;;;5029252;28;20488;-75
2023/06/09 02:57:23;;;;;;;8.57;7.43;;;15.80;1.00;;;;;;5022714;28;20182;-75
2023/06/09 02:59:48;;;;;;;12.43;8.47;;;15.70;1.00;;;;;;5029724;28;20276;-75
2023/06/09 03:02:15;;;;;;;10.40;7.90;;;15.80;1.00;;;;;;5026273;28;20648;-76
2023/06/09 03:04:42;;;;;;;10.87;7.90;;;15.80;1.00;;;;;;5028093;28;20758;-74
2023/06/09 03:07:09;;;;;;;10.33;7.60;;;15.80;1.00;;;;;;5033830;28;20428;-75
2023/06/09 03:09:35;;;;;;;13.23;7.97;;;15.80;1.00;;;;;;5031978;28;20598;-75
2023/06/09 03:12:01;;;;;;;12.17;9.23;;;15.90;1.00;;;;;;5033253;28;20562;-75
2023/06/09 03:14:27;;;;;;;11.63;9.10;;;15.90;1.00;;;;;;5033394;28;20535;-75
2023/06/09 03:16:53;;;;;;;11.13;8.70;;;15.90;1.00;;;;;;5033141;28;20178;-76
2023/06/09 03:19:19;;;;;;;10.07;8.17;;;15.90;1.00;;;;;;5033308;28;20182;-75
2023/06/09 03:21:45;;;;;;;9.83;8.10;;;15.90;1.00;;;;;;5032924;28;20428;-75
2023/06/09 03:24:11;;;;;;;12.70;8.03;;;15.90;1.00;;;;;;5031962;28;20312;-74
2023/06/09 03:26:37;;;;;;;10.63;7.90;;;15.90;1.00;;;;;;5033018;28;20190;-75
2023/06/09 03:29:02;;;;;;;10.63;8.30;;;15.80;1.00;;;;;;5032714;28;20456;-75
2023/06/09 03:31:28;;;;;;;9.77;8.33;;;15.70;1.00;;;;;;5033090;28;20213;-75
2023/06/09 03:33:54;;;;;;;10.90;8.50;;;15.80;1.00;;;;;;5032957;28;20202;-76
2023/06/09 03:36:21;;;;;;;10.03;8.63;;;15.80;1.00;;;;;;5031596;28;20185;-76
2023/06/09 03:38:46;;;;;;;9.00;7.70;;;15.90;1.00;;;;;;5032599;28;20432;-75
2023/06/09 03:41:12;;;;;;;9.63;8.30;;;16.10;1.00;;;;;;5031525;28;20432;-75
2023/06/09 03:43:37;;;;;;;12.40;8.00;;;16.30;1.00;;;;;;5033062;28;20615;-75
2023/06/09 03:46:03;;;;;;;11.10;8.97;;;16.30;1.00;;;;;;5032555;28;20182;-75
2023/06/09 03:48:28;;;;;;;10.40;8.80;;;16.30;1.00;;;;;;5032777;28;20193;-75
2023/06/09 03:50:54;;;;;;;14.60;9.03;;;16.30;1.00;;;;;;5032486;28;20682;-75
2023/06/09 03:53:20;;;;;;;10.73;8.73;;;;;;;;;;5032525;28;20189;-77
2023/06/09 03:55:46;;;;;;;12.27;9.17;;;16.40;1.00;;;;;;5032472;28;20691;-74
2023/06/09 03:58:12;;;;;;;10.97;8.77;;;16.40;1.00;;;;;;5024837;28;20421;-73
2023/06/09 04:00:38;;;;;;;11.00;9.50;;;16.40;1.00;;;;;;5032741;28;20188;-75
2023/06/09 04:03:04;;;;;;;11.43;8.67;;;16.40;1.00;;;;;;5032248;28;20178;-75
2023/06/09 04:05:29;;;;;;;11.93;9.07;;;16.50;1.00;;;;;;5032499;28;20964;-75
2023/06/09 04:07:55;;;;;;;13.27;10.13;;;16.50;1.00;;;;;;5032123;28;20193;-74
2023/06/09 04:10:21;;;;;;;9.93;8.90;;;16.60;1.00;;;;;;5032111;28;20213;-75
2023/06/09 04:12:46;;;;;;;11.87;10.33;;;16.60;1.00;;;;;;5032027;28;20568;-74
2023/06/09 04:15:12;;;;;;;12.50;9.67;;;16.60;1.00;;;;;;5032134;28;20205;-74
2023/06/09 04:17:37;;;;;;;11.27;9.57;;;16.60;1.00;;;;;;5031666;28;20186;-75
2023/06/09 04:20:05;;;;;;;17.43;9.43;;;16.70;1.00;;;;;;5030548;28;20304;-76
2023/06/09 04:22:31;;;;;;;10.77;9.00;;;16.70;1.00;;;;;;5032193;28;20558;-75
2023/06/09 04:24:56;;;;;;;11.90;9.53;;;16.70;1.00;;;;;;5031458;28;20495;-75
2023/06/09 04:27:23;;;;;;;11.37;9.43;;;16.70;1.00;;;;;;5032155;28;20460;-75
2023/06/09 04:29:49;;;;;;;11.17;9.67;;;16.80;1.00;;;;;;5031569;28;20288;-74
2023/06/09 04:32:16;;;;;;;11.23;9.60;;;16.70;1.00;;;;;;5032011;28;20424;-75
2023/06/09 04:34:46;;;;;;;11.90;9.40;;;16.70;1.00;;;;;;5032147;28;20451;-75
2023/06/09 04:37:12;;;;;;;11.60;8.93;;;16.70;1.00;;;;;;5031922;28;20420;-75
2023/06/09 04:39:41;;;;;;;11.00;9.80;;;16.70;1.00;;;;;;5030490;28;20416;-75
2023/06/09 04:42:08;;;;;;;13.20;9.73;;;16.70;1.00;;;;;;5031564;28;20926;-75
2023/06/09 04:44:34;;;;;;;13.43;9.20;;;16.80;1.00;;;;;;5029916;28;20548;-75
2023/06/09 04:47:02;;;;;;;12.37;10.20;;;16.80;1.00;;;;;;5030277;28;20942;-75
2023/06/09 04:49:30;;;;;;;12.50;10.10;;;16.90;1.00;;;;;;5031601;28;20584;-75
2023/06/09 04:51:57;;;;;;;12.73;10.97;;;16.80;1.00;;;;;;5031538;28;20499;-74
2023/06/09 04:54:28;;;;;;;12.73;9.80;;;16.90;1.00;;;;;;5031363;28;20463;-74
2023/06/09 04:56:57;;;;;;;11.20;9.53;;;16.90;1.00;;;;;;5023298;28;20429;-74
2023/06/09 04:59:28;;;;;;;15.10;10.87;;;17.00;1.00;;;;;;5030270;28;20792;-74
2023/06/09 05:01:55;;;;;;;12.10;10.70;;;17.10;1.00;;;;;;5031151;28;20421;-75
2023/06/09 05:04:20;;;;;;;14.30;10.90;;;17.20;1.00;;;;;;5028388;28;20441;-74
2023/06/09 05:06:46;;;;;;;11.20;10.00;;;17.40;1.00;;;;;;5031395;28;20459;-75
2023/06/09 05:09:12;;;;;;;13.30;10.90;;;17.40;1.00;;;;;;5030098;28;20209;-74
2023/06/09 05:11:37;;;;;;;13.37;11.17;;;17.50;1.00;;;;;;5031150;28;20178;-75
2023/06/09 05:14:07;;;;;;;11.80;10.60;;;17.60;1.00;;;;;;5031056;28;20206;-74
2023/06/09 05:16:36;;;;;;;15.60;11.37;;;17.70;1.00;;;;;;5031065;28;20170;-75
2023/06/09 05:19:01;;;;;;;13.00;11.43;;;17.80;1.00;;;;;;5030570;28;20447;-75
2023/06/09 05:21:27;;;;;;;14.80;11.80;;;18.00;1.00;;;;;;5030997;28;20428;-75
2023/06/09 05:23:53;;;;;;;16.70;11.90;;;18.10;1.00;;;;;;5030847;28;20236;-74
2023/06/09 05:26:19;;;;;;;17.50;12.77;;;18.20;1.00;;;;;;5030960;28;20710;-75
2023/06/09 05:28:45;;;;;;;14.40;11.93;;;18.20;1.00;;;;;;5029451;28;20332;-75
2023/06/09 05:31:14;;;;;;;16.00;12.80;;;18.30;1.00;;;;;;5030644;28;20420;-75
2023/06/09 05:33:40;;;;;;;15.50;11.50;;;18.40;1.00;;;;;;5030703;28;20455;-75
2023/06/09 05:36:06;;;;;;;14.37;11.50;;;18.50;1.00;;;;;;5030688;28;20424;-75
2023/06/09 05:38:32;;;;;;;15.67;10.70;;;18.70;1.00;;;;;;5030770;28;20178;-75
2023/06/09 05:40:57;;;;;;;14.13;10.77;;;18.90;1.00;;;;;;5030460;28;20435;-75
2023/06/09 05:43:27;;;;;;;12.53;10.60;;;19.20;1.00;;;;;;5030636;28;20189;-75
2023/06/09 05:45:53;;;;;;;12.40;11.00;;;19.20;1.00;;;;;;5030343;28;20653;-74
2023/06/09 05:48:18;;;;;;;12.40;10.10;;;19.30;1.00;;;;;;5029128;28;20420;-74
2023/06/09 05:50:45;;;;;;;11.43;10.23;;;19.50;1.00;;;;;;5029345;28;20264;-75
2023/06/09 05:53:11;;;;;;;11.83;10.37;;;19.60;1.00;;;;;;5030216;28;20536;-75
2023/06/09 05:55:38;;;;;;;11.00;9.70;;;19.70;1.00;;;;;;5030306;28;20443;-75
2023/06/09 05:58:03;;;;;;;11.80;9.63;;;19.80;1.00;;;;;;5029960;28;20664;-75
2023/06/09 06:00:30;;;;;;;12.90;10.40;;;19.80;1.00;;;;;;5030227;28;20436;-75
2023/06/09 06:03:00;;;;;;;13.60;10.20;;;19.90;1.00;;;;;;5030075;28;20185;-74
2023/06/09 06:05:26;;;;;;;14.27;10.00;;;20.00;1.00;;;;;;5030374;28;20478;-75
2023/06/09 06:07:52;;;;;;;11.20;9.83;;;20.10;1.00;;;;;;5030086;28;20428;-74
2023/06/09 06:10:17;;;;;;;14.53;10.50;;;20.10;1.00;;;;;;5030231;28;20464;-75
2023/06/09 06:12:43;;;;;;;11.80;9.30;;;20.20;1.00;;;;;;5030351;28;20177;-75
2023/06/09 06:15:09;;;;;;;11.70;9.20;;;20.10;1.00;;;;;;5029797;28;20205;-75
2023/06/09 06:17:34;;;;;;;17.60;10.20;;;20.20;1.00;;;;;;5030362;28;20177;-75
2023/06/09 06:20:00;;;;;;;13.53;9.50;;;20.20;1.00;;;;;;5029968;28;20192;-74
2023/06/09 06:22:25;;;;;;;10.87;9.77;;;20.30;1.00;;;;;;5030272;28;20532;-76
2023/06/09 06:24:51;;;;;;;11.57;9.93;;;20.40;1.00;;;;;;5028765;28;20203;-75
2023/06/09 06:27:16;;;;;;;11.03;9.30;;;20.50;1.00;;;;;;5030424;28;20260;-75
2023/06/09 06:29:42;;;;;;;14.20;9.30;;;20.60;1.00;;;;;;5029862;28;20211;-75
2023/06/09 06:32:08;;;;;;;20.13;8.97;;;20.80;1.00;;;;;;5029884;28;20183;-75
2023/06/09 06:34:34;;;;;;;12.30;9.23;;;20.90;1.00;;;;;;5028724;28;20445;-76
2023/06/09 06:37:00;;;;;;;12.20;9.70;;;21.00;1.00;;;;;;5030204;28;20181;-76
2023/06/09 06:39:26;;;;;;;10.57;9.23;;;21.20;1.00;;;;;;5031202;28;20619;-76
2023/06/09 06:41:51;;;;;;;11.03;9.40;;;21.30;1.00;;;;;;5033966;28;20189;-75
2023/06/09 06:44:17;;;;;;;11.47;9.30;;;21.30;1.00;;;;;;5033476;28;20211;-75
2023/06/09 06:46:42;;;;;;;12.73;9.30;;;21.50;1.00;;;;;;5034052;28;20192;-75
2023/06/09 06:49:08;;;;;;;11.63;9.20;;;21.50;1.00;;;;;;5033186;28;20201;-75
2023/06/09 06:51:33;;;;;;;10.00;8.63;;;21.60;1.00;;;;;;5033731;28;20643;-76
2023/06/09 06:53:59;;;;;;;10.50;8.80;;;21.70;1.00;;;;;;5033266;28;20193;-74
2023/06/09 06:56:25;;;;;;;11.03;9.03;;;21.70;1.00;;;;;;5032691;28;20181;-75
2023/06/09 06:58:51;;;;;;;10.10;9.00;;;21.80;1.00;;;;;;5033049;28;20177;-76
2023/06/09 07:01:20;;;;;;;17.20;10.07;;;21.90;1.00;;;;;;5032823;28;20917;-75
2023/06/09 07:03:46;;;;;;;9.13;8.23;;;22.10;1.00;;;;;;5033141;28;20813;-75
2023/06/09 07:06:12;;;;;;;15.27;9.00;;;22.20;1.00;;;;;;5032788;28;20431;-75
2023/06/09 07:08:37;;;;;;;16.80;9.17;;;22.30;1.00;;;;;;5031054;28;20428;-75
2023/06/09 07:11:03;;;;;;;10.70;8.80;;;22.40;1.00;;;;;;5032707;28;20177;-76
2023/06/09 07:13:29;;;;;;;11.30;9.07;;;22.60;1.00;;;;;;5033319;28;20508;-75
2023/06/09 07:15:55;;;;;;;11.50;9.20;;;22.60;1.00;;;;;;5032729;28;20183;-75
2023/06/09 07:18:20;;;;;;;13.10;9.13;;;22.70;1.00;;;;;;5024917;28;20181;-75
2023/06/09 07:20:48;;;;;;;10.13;9.03;;;22.80;1.00;;;;;;5032882;28;20256;-76
2023/06/09 07:23:13;;;;;;;9.40;8.40;;;23.00;1.00;;;;;;5032466;28;20275;-75
2023/06/09 07:25:39;;;;;;;9.57;8.03;;;23.10;1.00;;;;;;5032555;28;21021;-76
2023/06/09 07:28:04;;;;;;;8.50;7.60;;;23.40;1.00;;;;;;5032210;28;20272;-76
2023/06/09 07:30:30;;;;;;;10.50;8.10;;;25.70;1.00;;;;;;5032424;28;20220;-75
2023/06/09 07:32:55;;;;;;;12.07;8.83;;;23.80;1.00;;;;;;5032318;28;20256;-75
2023/06/09 07:35:23;;;;;;;8.70;7.80;;;24.00;1.00;;;;;;5032495;28;20201;-76
2023/06/09 07:37:48;;;;;;;10.43;8.03;;;24.10;1.00;;;;;;5031214;28;20174;-75
2023/06/09 07:40:14;;;;;;;9.90;7.83;;;24.10;1.00;;;;;;5032114;28;20497;-75
2023/06/09 07:42:39;;;;;;;8.37;7.50;;;24.20;1.00;;;;;;5032229;28;20264;-75
2023/06/09 07:45:06;;;;;;;10.57;7.77;;;24.40;1.00;;;;;;5031899;28;20228;-75
2023/06/09 07:47:31;;;;;;;9.10;8.20;;;24.60;1.00;;;;;;5032429;28;20275;-76
2023/06/09 07:49:57;;;;;;;8.70;7.70;;;24.80;1.00;;;;;;5031605;28;20492;-74
2023/06/09 07:52:22;;;;;;;9.63;7.73;;;25.10;1.00;;;;;;5031198;28;20189;-76
2023/06/09 07:54:48;;;;;;;9.70;7.30;;;25.20;1.00;;;;;;5031546;28;20201;-76
2023/06/09 07:57:15;;;;;;;12.63;8.20;;;25.30;1.00;;;;;;5030886;28;20204;-76
2023/06/09 07:59:41;;;;;;;9.83;7.40;;;25.50;1.00;;;;;;5030735;28;20181;-75
2023/06/09 08:02:06;;;;;;;9.50;7.27;;;25.70;1.00;;;;;;5031878;28;20867;-75
2023/06/09 08:04:32;;;;;;;10.37;7.17;;;25.90;1.00;;;;;;5031909;28;20255;-76
2023/06/09 08:06:59;;;;;;;9.03;7.80;;;26.00;1.00;;;;;;5031870;28;20688;-75
2023/06/09 08:09:27;;;;;;;8.77;7.87;;;26.00;1.00;;;;;;5031832;28;20224;-76
2023/06/09 08:11:53;;;;;;;10.03;7.57;;;26.00;1.00;;;;;;5031611;28;20428;-76
2023/06/09 08:14:18;;;;;;;8.83;7.13;;;26.20;1.00;;;;;;5031574;28;20778;-75
2023/06/09 08:16:45;;;;;;;8.23;7.40;;;25.90;1.00;;;;;;5031868;28;20207;-76
2023/06/09 08:19:10;;;;;;;10.20;7.53;;;26.20;1.00;;;;;;5031507;28;20278;-75
2023/06/09 08:21:45;;;;;;;8.90;7.87;;;26.30;1.00;;;;;;5031910;28;20448;-76
2023/06/09 08:24:11;;;;;;;8.00;7.20;;;26.70;1.00;;;;;;5030023;28;20213;-75
2023/06/09 08:26:37;;;;;;;10.43;7.50;;;27.00;1.00;;;;;;5030037;28;20189;-75
2023/06/09 08:29:06;;;;;;;10.60;7.53;;;27.10;1.00;;;;;;5031226;28;20208;-75
2023/06/09 08:31:32;;;;;;;8.30;7.23;;;27.40;1.00;;;;;;5031491;28;20220;-76
2023/06/09 08:33:58;;;;;;;15.53;7.30;;;27.50;1.00;;;;;;5031561;28;20675;-76
2023/06/09 08:36:24;;;;;;;8.00;7.20;;;27.60;1.00;;;;;;5030945;28;20181;-76
2023/06/09 08:38:49;;;;;;;8.63;6.90;;;27.70;1.00;;;;;;5031271;28;20181;-76
2023/06/09 08:41:15;;;;;;;8.83;7.40;;;28.00;1.00;;;;;;5030962;28;20554;-75
2023/06/09 08:43:41;;;;;;;8.00;7.20;;;28.10;1.00;;;;;;5031445;28;20213;-76
2023/06/09 08:46:11;;;;;;;8.00;7.20;;;28.10;1.00;;;;;;5031051;28;20212;-75
2023/06/09 08:48:53;;;;;;;10.23;7.87;;;28.60;1.00;;;;;;5030737;28;20551;-76
2023/06/09 08:51:21;;;;;;;9.47;7.00;;;28.50;1.00;;;;;;5030693;28;20660;-76
2023/06/09 08:53:51;;;;;;;9.30;7.40;;;28.50;1.00;;;;;;5030879;28;20298;-76
2023/06/09 08:56:16;;;;;;;10.70;6.97;;;28.80;1.00;;;;;;5029002;28;20178;-75
2023/06/09 08:58:42;;;;;;;12.27;6.87;;;29.20;1.00;;;;;;5031488;28;20177;-76
2023/06/09 09:01:08;;;;;;;10.20;6.70;;;29.40;1.00;;;;;;5031205;28;20185;-76
2023/06/09 09:03:34;;;;;;;7.30;6.50;;;30.00;1.00;;;;;;5031087;28;20181;-76
2023/06/09 09:06:00;;;;;;;8.75;6.50;;;30.10;1.00;;;;;;5027071;28;20178;-76
2023/06/09 09:08:26;;;;;;;11.25;6.97;;;30.60;1.00;;;;;;5030947;28;20599;-76
2023/06/09 09:10:51;;;;;;;10.07;6.20;;;31.30;1.00;;;;;;5031389;28;20547;-76
2023/06/09 09:13:18;;;;;;;9.75;6.97;;;31.70;1.00;;;;;;5030996;28;20295;-77
2023/06/09 09:15:50;;;;;;;10.00;6.15;;;32.30;1.00;;;;;;5031174;28;20390;-76
2023/06/09 09:18:17;;;;;;;6.78;5.60;;;33.10;1.00;;;;;;5030829;28;20181;-76
2023/06/09 09:20:43;;;;;;;5.95;5.35;;;33.60;1.00;;;;;;5030989;28;20181;-77
2023/06/09 09:23:09;;;;;;;7.38;5.07;;;33.90;1.00;;;;;;5021594;28;20714;-76
2023/06/09 09:25:34;;;;;;;7.15;5.38;;;34.60;1.00;;;;;;5029874;28;20204;-77
2023/06/09 09:28:11;;;;;;;6.28;5.55;;;35.10;1.00;;;;;;5031123;28;20174;-77
2023/06/09 09:30:47;;;;;;;6.78;5.35;;;35.70;1.00;;;;;;5024152;28;20291;-77
2023/06/09 09:33:18;;;;;;;7.68;4.95;;;36.00;1.00;;;;;;5030499;28;20242;-77
2023/06/09 09:35:45;;;;;;;6.75;5.00;;;36.10;1.00;;;;;;5030783;28;20208;-77
2023/06/09 09:38:16;;;;;;;5.43;4.90;;;36.60;1.00;;;;;;5030460;28;20189;-77
2023/06/09 09:40:47;;;;;;;5.70;5.10;;;37.20;1.00;;;;;;5030931;28;20193;-77
2023/06/09 09:43:15;;;;;;;7.03;4.80;;;37.50;1.00;;;;;;5030956;28;20215;-76
2023/06/09 09:45:46;;;;;;;5.65;5.03;;;38.00;1.00;;;;;;5030525;28;20205;-77
2023/06/09 09:48:14;;;;;;;5.40;4.43;;;38.60;1.00;;;;;;5030385;28;20195;-76
2023/06/09 09:50:41;;;;;;;5.18;4.68;;;38.70;1.00;;;;;;5030843;28;20463;-77
2023/06/09 09:53:07;;;;;;;6.57;5.10;;;39.10;1.00;;;;;;5030196;28;20717;-77
2023/06/09 09:55:38;;;;;;;4.90;4.40;;;38.70;1.00;;;;;;5031187;28;20200;-77
2023/06/09 09:58:06;;;;;;;6.40;4.85;;;39.10;1.00;;;;;;5028174;28;20272;-77
2023/06/09 10:00:36;;;;;;;6.80;5.07;;;39.30;1.00;;;;;;5030543;28;20181;-77
2023/06/09 10:03:14;;;;;;;5.38;4.80;;;39.40;1.00;;;;;;5030582;28;20181;-77
2023/06/09 10:05:43;;;;;;;6.18;4.78;;;39.80;1.00;;;;;;5023692;28;20266;-77
2023/06/09 10:08:10;;;;;;;5.78;4.53;;;39.70;1.00;;;;;;5030106;28;20682;-77
2023/06/09 10:10:38;;;;;;;5.25;4.53;;;39.40;1.00;;;;;;5030236;28;20575;-77
2023/06/09 10:13:04;;;;;;;6.07;4.80;;;39.70;1.00;;;;;;5030321;28;20651;-77
2023/06/09 10:15:31;;;;;;;5.00;4.50;;;39.60;1.00;;;;;;5029344;28;20207;-77
2023/06/09 10:17:58;;;;;;;5.53;4.80;;;39.20;1.00;;;;;;5030575;28;20206;-77
2023/06/09 10:20:24;;;;;;;6.07;4.55;;;38.90;1.00;;;;;;5029976;28;20334;-77
2023/06/09 10:22:51;;;;;;;5.50;4.95;;;39.10;1.00;;;;;;5028517;28;20279;-77
2023/06/09 10:25:17;;;;;;;6.75;4.57;;;39.20;1.00;;;;;;5029688;28;20204;-75
2023/06/09 10:27:43;;;;;;;10.57;4.60;;;39.40;1.00;;;;;;5030328;28;20192;-74
2023/06/09 10:30:09;;;;;;;5.95;4.70;;;40.10;1.00;;;;;;5029873;28;20201;-74
2023/06/09 10:32:46;;;;;;;7.65;4.60;;;40.60;1.00;;;;;;5030110;28;20189;-75
2023/06/09 10:35:15;;;;;;;5.53;4.75;;;40.70;1.00;;;;;;5029813;28;20205;-74
2023/06/09 10:37:41;;;;;;;5.80;4.40;;;41.00;1.00;;;;;;5030006;28;20177;-75
2023/06/09 10:40:16;;;;;;;5.78;4.72;;;41.00;1.00;;;;;;5029827;28;20658;-75
2023/06/09 10:43:19;;;;;;;6.32;4.15;;;40.70;1.00;;;;;;5030228;28;20180;-74
2023/06/09 10:45:52;;;;;;;5.53;4.60;;;41.10;1.00;;;;;;5023688;28;20240;-76
2023/06/09 10:48:40;;;;;;;7.43;4.60;;;40.90;1.00;;;;;;5029209;28;20690;-75
2023/06/09 10:51:26;;;;;;;5.10;4.18;;;41.30;1.00;;;;;;5025239;28;20189;-76
2023/06/09 10:54:09;;;;;;;5.38;3.95;;;42.00;1.00;;;;;;5024311;28;20221;-76
2023/06/09 10:56:54;;;;;;;9.02;4.13;;;41.30;1.00;;;;;;5026768;28;20624;-76
2023/06/09 10:59:25;;;;;;;7.38;4.28;;;41.60;1.00;;;;;;5029161;28;20267;-75
2023/06/09 11:02:03;;;;;;;5.38;4.57;;;42.00;1.00;;;;;;5027368;28;20272;-75
2023/06/09 11:04:41;;;;;;;6.43;4.30;;;41.90;1.00;;;;;;5029541;28;20213;-75
2023/06/09 11:07:15;;;;;;;4.35;3.95;;;42.20;1.00;;;;;;5029715;28;20643;-76
2023/06/09 11:09:46;;;;;;;4.80;4.13;;;42.50;1.00;;;;;;5022205;28;20217;-75
2023/06/09 11:12:50;;;;;;;5.10;4.55;;;41.90;1.00;;;;;;5029116;28;20231;-75
2023/06/09 11:15:16;;;;;;;5.13;3.95;;;41.70;1.00;;;;;;5028803;28;20197;-76
2023/06/09 11:17:50;;;;;;;7.05;4.20;;;42.10;1.00;;;;;;5029316;28;20264;-75
2023/06/09 11:20:20;;;;;;;4.45;3.72;;;42.70;1.00;;;;;;5028865;28;20193;-75
2023/06/09 11:22:47;;;;;;;5.22;4.40;;;42.00;1.00;;;;;;5029194;28;20181;-76
2023/06/09 11:25:19;;;;;;;5.55;4.60;;;41.50;1.00;;;;;;5029479;28;20237;-74
2023/06/09 11:27:46;;;;;;;8.50;4.57;;;41.60;1.00;;;;;;5032812;28;20698;-75
2023/06/09 11:30:18;;;;;;;4.90;4.35;;;41.60;1.00;;;;;;5032337;28;20208;-74
2023/06/09 11:32:54;;;;;;;4.43;3.78;;;41.70;1.00;;;;;;5032713;28;20671;-76
2023/06/09 11:35:28;;;;;;;6.30;4.72;;;42.30;1.00;;;;;;5032455;28;20259;-74
2023/06/09 11:38:05;;;;;;;6.28;4.38;;;42.00;1.00;;;;;;5031353;28;20751;-76
2023/06/09 11:40:33;;;;;;;5.22;4.72;;;41.20;1.00;;;;;;5030875;28;20228;-75
2023/06/09 11:43:04;;;;;;;5.43;4.40;;;40.80;1.00;;;;;;5032574;28;20201;-75
2023/06/09 11:45:31;;;;;;;5.10;4.30;;;41.10;1.00;;;;;;5032024;28;20204;-75
2023/06/09 11:48:00;;;;;;;5.72;4.65;;;41.30;1.00;;;;;;5031100;28;20235;-75
2023/06/09 11:50:46;;;;;;;5.10;4.32;;;40.70;1.00;;;;;;5031925;28;20575;-75
2023/06/09 11:53:15;;;;;;;6.05;3.85;;;40.40;1.00;;;;;;5031867;28;20177;-74
2023/06/09 11:55:42;;;;;;;4.93;3.75;;;41.00;1.00;;;;;;5032101;28;20224;-76
2023/06/09 11:58:09;;;;;;;9.25;4.20;;;41.50;1.00;;;;;;5029039;28;20185;-75
2023/06/09 12:00:38;;;;;;;4.82;4.00;;;41.20;1.00;;;;;;5031787;28;20651;-75
2023/06/09 12:03:07;;;;;;;5.38;4.20;;;41.00;1.00;;;;;;5031665;28;20655;-75
2023/06/09 12:05:33;;;;;;;4.32;3.92;;;41.60;1.00;;;;;;5031627;28;20284;-76
2023/06/09 12:08:00;;;;;;;4.55;3.92;;;42.40;1.00;;;;;;5032029;28;20609;-76
2023/06/09 12:10:27;;;;;;;5.18;3.97;;;42.90;1.00;;;;;;5031549;28;20211;-75
2023/06/09 12:12:57;;;;;;;9.05;4.20;;;43.10;1.00;;;;;;5031988;28;20181;-76
2023/06/09 12:15:25;;;;;;;4.30;3.80;;;43.60;1.00;;;;;;5031981;28;20209;-75
2023/06/09 12:17:57;;;;;;;5.57;4.32;;;43.70;1.00;;;;;;5031754;28;20592;-76
2023/06/09 12:20:31;;;;;;;4.32;3.83;;;42.90;1.00;;;;;;5030392;28;20508;-75
2023/06/09 12:23:02;;;;;;;5.97;3.95;;;42.90;1.00;;;;;;5031693;28;20184;-76
2023/06/09 12:25:29;;;;;;;4.82;4.32;;;43.70;1.00;;;;;;5031204;28;20239;-75
2023/06/09 12:27:57;;;;;;;5.07;4.28;;;43.80;1.00;;;;;;5031565;28;20258;-76
2023/06/09 12:31:12;;;;;;;5.68;4.63;;;44.40;1.00;;;;;;5030999;28;20266;-75
2023/06/09 12:33:38;;;;;;;4.30;3.60;;;44.20;1.00;;;;;;5025207;28;20622;-76
2023/06/09 12:36:09;;;;;;;4.68;4.05;;;44.00;1.00;;;;;;5031748;28;20253;-75
2023/06/09 12:38:43;;;;;;;9.20;4.43;;;43.30;1.00;;;;;;5030326;28;20336;-76
2023/06/09 12:41:11;;;;;;;4.35;3.90;;;43.20;1.00;;;;;;5031486;28;20176;-74
2023/06/09 12:43:55;;;;;;;5.35;4.00;;;44.20;1.00;;;;;;5031355;28;20184;-75
2023/06/09 12:46:38;;;;;;;4.50;4.00;;;44.30;1.00;;;;;;5030836;28;20177;-75
2023/06/09 12:49:05;;;;;;;6.18;3.92;;;44.10;1.00;;;;;;5030927;28;20292;-75
2023/06/09 12:51:32;;;;;;;6.93;4.25;;;44.60;1.00;;;;;;5029651;28;20189;-75
2023/06/09 12:53:58;;;;;;;6.53;3.78;;;45.10;1.00;;;;;;5027233;28;20772;-75
2023/06/09 12:56:25;;;;;;;5.43;3.85;;;44.10;1.00;;;;;;5026992;28;20276;-75